Aviation Digital Data Service (ADDS)

Output produced by METARs form (1633 UTC 16 June 2019)
found at http://www.aviationweather.gov/metar/data/
 
METAR text: KSNA 161553Z 22004KT 9SM OVC015 19/15 A2989 RMK AO2 SLP121 T01890150
Conditions at: KSNA (COSTA MESA , CA, US) observed 1553 UTC 16 June 2019
Temperature: 18.9°C (66°F)
Dewpoint: 15.0°C (59°F) [RH = 78%]
Pressure (altimeter): 29.89 inches Hg (1012.3 mb)
[Sea-level pressure: 1012.1 mb]
Winds: from the SW (220 degrees) at 5 MPH (4 knots; 2.1 m/s)
Visibility: 9 miles (14 km)
Ceiling: 1500 feet AGL
Clouds: overcast cloud deck at 1500 feet AGL
Weather: no significant weather observed at this time

METAR text: KSNA 161453Z 21005KT 10SM OVC015 18/15 A2989 RMK AO2 SLP119 T01830150 53006
Conditions at: KSNA (COSTA MESA , CA, US) observed 1453 UTC 16 June 2019
Temperature: 18.3°C (65°F)
Dewpoint: 15.0°C (59°F) [RH = 81%]
Pressure (altimeter): 29.89 inches Hg (1012.3 mb)
[Sea-level pressure: 1011.9 mb]
Winds: from the SSW (210 degrees) at 6 MPH (5 knots; 2.6 m/s)
Visibility: 10 or more miles (16+ km)
Ceiling: 1500 feet AGL
Clouds: overcast cloud deck at 1500 feet AGL
Weather: no significant weather observed at this time

METAR text: KSNA 161353Z 20004KT 10SM OVC015 18/14 A2988 RMK AO2 SLP116 T01830144
Conditions at: KSNA (COSTA MESA , CA, US) observed 1353 UTC 16 June 2019
Temperature: 18.3°C (65°F)
Dewpoint: 14.4°C (58°F) [RH = 78%]
Pressure (altimeter): 29.88 inches Hg (1011.9 mb)
[Sea-level pressure: 1011.6 mb]
Winds: from the SSW (200 degrees) at 5 MPH (4 knots; 2.1 m/s)
Visibility: 10 or more miles (16+ km)
Ceiling: 1500 feet AGL
Clouds: overcast cloud deck at 1500 feet AGL
Weather: no significant weather observed at this time

METAR text: KSNA 161253Z 20003KT 10SM OVC015 18/14 A2987 RMK AO2 SLP113 T01830144
Conditions at: KSNA (COSTA MESA , CA, US) observed 1253 UTC 16 June 2019
Temperature: 18.3°C (65°F)
Dewpoint: 14.4°C (58°F) [RH = 78%]
Pressure (altimeter): 29.87 inches Hg (1011.6 mb)
[Sea-level pressure: 1011.3 mb]
Winds: from the SSW (200 degrees) at 3 MPH (3 knots; 1.5 m/s)
Visibility: 10 or more miles (16+ km)
Ceiling: 1500 feet AGL
Clouds: overcast cloud deck at 1500 feet AGL
Weather: no significant weather observed at this time

METAR text: KSNA 161153Z AUTO 32004KT 10SM OVC015 19/14 A2987 RMK AO2 SLP113 T01890139 10189 20183 55001
Conditions at: KSNA (COSTA MESA , CA, US) observed 1153 UTC 16 June 2019
Temperature: 18.9°C (66°F)
Dewpoint: 13.9°C (57°F) [RH = 73%]
Pressure (altimeter): 29.87 inches Hg (1011.6 mb)
[Sea-level pressure: 1011.3 mb]
Winds: from the NW (320 degrees) at 5 MPH (4 knots; 2.1 m/s)
Visibility: 10 or more miles (16+ km)
Ceiling: 1500 feet AGL
Clouds: overcast cloud deck at 1500 feet AGL
Weather: automated observation with no human augmentation;
there may or may not be significant weather present at this time

METAR text: KSNA 161150Z AUTO 34003KT 10SM OVC015 19/14 A2987 RMK AO2
Conditions at: KSNA (COSTA MESA , CA, US) observed 1150 UTC 16 June 2019
Temperature: 19.0°C (66°F)
Dewpoint: 14.0°C (57°F) [RH = 73%]
Pressure (altimeter): 29.87 inches Hg (1011.6 mb)
Winds: from the NNW (340 degrees) at 3 MPH (3 knots; 1.5 m/s)
Visibility: 10 or more miles (16+ km)
Ceiling: 1500 feet AGL
Clouds: overcast cloud deck at 1500 feet AGL
Weather: automated observation with no human augmentation;
there may or may not be significant weather present at this time

METAR text: KSNA 161053Z AUTO 22003KT 10SM OVC014 18/14 A2987 RMK AO2 SLP112 T01830144
Conditions at: KSNA (COSTA MESA , CA, US) observed 1053 UTC 16 June 2019
Temperature: 18.3°C (65°F)
Dewpoint: 14.4°C (58°F) [RH = 78%]
Pressure (altimeter): 29.87 inches Hg (1011.6 mb)
[Sea-level pressure: 1011.2 mb]
Winds: from the SW (220 degrees) at 3 MPH (3 knots; 1.5 m/s)
Visibility: 10 or more miles (16+ km)
Ceiling: 1400 feet AGL
Clouds: overcast cloud deck at 1400 feet AGL
Weather: automated observation with no human augmentation;
there may or may not be significant weather present at this time

METAR text: KSNA 161026Z AUTO 20003KT 10SM OVC014 19/14 A2987 RMK AO2 T01890144
Conditions at: KSNA (COSTA MESA , CA, US) observed 1026 UTC 16 June 2019
Temperature: 18.9°C (66°F)
Dewpoint: 14.4°C (58°F) [RH = 75%]
Pressure (altimeter): 29.87 inches Hg (1011.6 mb)
Winds: from the SSW (200 degrees) at 3 MPH (3 knots; 1.5 m/s)
Visibility: 10 or more miles (16+ km)
Ceiling: 1400 feet AGL
Clouds: overcast cloud deck at 1400 feet AGL
Weather: automated observation with no human augmentation;
there may or may not be significant weather present at this time

METAR text: KSNA 160953Z AUTO 00000KT 10SM OVC015 19/14 A2987 RMK AO2 SLP114 T01890144
Conditions at: KSNA (COSTA MESA , CA, US) observed 0953 UTC 16 June 2019
Temperature: 18.9°C (66°F)
Dewpoint: 14.4°C (58°F) [RH = 75%]
Pressure (altimeter): 29.87 inches Hg (1011.6 mb)
[Sea-level pressure: 1011.4 mb]
Winds: calm
Visibility: 10 or more miles (16+ km)
Ceiling: 1500 feet AGL
Clouds: overcast cloud deck at 1500 feet AGL
Weather: automated observation with no human augmentation;
there may or may not be significant weather present at this time

METAR text: KSNA 160940Z AUTO 00000KT 10SM OVC015 18/14 A2988 RMK AO2 T01830144
Conditions at: KSNA (COSTA MESA , CA, US) observed 0940 UTC 16 June 2019
Temperature: 18.3°C (65°F)
Dewpoint: 14.4°C (58°F) [RH = 78%]
Pressure (altimeter): 29.88 inches Hg (1011.9 mb)
Winds: calm
Visibility: 10 or more miles (16+ km)
Ceiling: 1500 feet AGL
Clouds: overcast cloud deck at 1500 feet AGL
Weather: automated observation with no human augmentation;
there may or may not be significant weather present at this time

METAR text: KSNA 160927Z AUTO 16003KT 10SM OVC014 18/14 A2988 RMK AO2 T01830144
Conditions at: KSNA (COSTA MESA , CA, US) observed 0927 UTC 16 June 2019
Temperature: 18.3°C (65°F)
Dewpoint: 14.4°C (58°F) [RH = 78%]
Pressure (altimeter): 29.88 inches Hg (1011.9 mb)
Winds: from the SSE (160 degrees) at 3 MPH (3 knots; 1.5 m/s)
Visibility: 10 or more miles (16+ km)
Ceiling: 1400 feet AGL
Clouds: overcast cloud deck at 1400 feet AGL
Weather: automated observation with no human augmentation;
there may or may not be significant weather present at this time

METAR text: KSNA 160853Z AUTO 00000KT 10SM OVC015 19/14 A2989 RMK AO2 SLP119 T01890139 56014
Conditions at: KSNA (COSTA MESA , CA, US) observed 0853 UTC 16 June 2019
Temperature: 18.9°C (66°F)
Dewpoint: 13.9°C (57°F) [RH = 73%]
Pressure (altimeter): 29.89 inches Hg (1012.3 mb)
[Sea-level pressure: 1011.9 mb]
Winds: calm
Visibility: 10 or more miles (16+ km)
Ceiling: 1500 feet AGL
Clouds: overcast cloud deck at 1500 feet AGL
Weather: automated observation with no human augmentation;
there may or may not be significant weather present at this time

METAR text: KSNA 160836Z AUTO 00000KT 10SM OVC015 18/14 A2989 RMK AO2 T01830144
Conditions at: KSNA (COSTA MESA , CA, US) observed 0836 UTC 16 June 2019
Temperature: 18.3°C (65°F)
Dewpoint: 14.4°C (58°F) [RH = 78%]
Pressure (altimeter): 29.89 inches Hg (1012.3 mb)
Winds: calm
Visibility: 10 or more miles (16+ km)
Ceiling: 1500 feet AGL
Clouds: overcast cloud deck at 1500 feet AGL
Weather: automated observation with no human augmentation;
there may or may not be significant weather present at this time

METAR text: KSNA 160753Z AUTO 00000KT 10SM OVC014 18/14 A2990 RMK AO2 SLP122 T01830144 402280172
Conditions at: KSNA (COSTA MESA , CA, US) observed 0753 UTC 16 June 2019
Temperature: 18.3°C (65°F)
Dewpoint: 14.4°C (58°F) [RH = 78%]
Pressure (altimeter): 29.90 inches Hg (1012.6 mb)
[Sea-level pressure: 1012.2 mb]
Winds: calm
Visibility: 10 or more miles (16+ km)
Ceiling: 1400 feet AGL
Clouds: overcast cloud deck at 1400 feet AGL
Weather: automated observation with no human augmentation;
there may or may not be significant weather present at this time

METAR text: KSNA 160724Z AUTO 00000KT 10SM OVC014 18/14 A2991 RMK AO2 T01830144
Conditions at: KSNA (COSTA MESA , CA, US) observed 0724 UTC 16 June 2019
Temperature: 18.3°C (65°F)
Dewpoint: 14.4°C (58°F) [RH = 78%]
Pressure (altimeter): 29.91 inches Hg (1013.0 mb)
Winds: calm
Visibility: 10 or more miles (16+ km)
Ceiling: 1400 feet AGL
Clouds: overcast cloud deck at 1400 feet AGL
Weather: automated observation with no human augmentation;
there may or may not be significant weather present at this time

METAR text: KSNA 160653Z AUTO 28003KT 10SM OVC015 18/14 A2991 RMK AO2 SLP128 T01830139
Conditions at: KSNA (COSTA MESA , CA, US) observed 0653 UTC 16 June 2019
Temperature: 18.3°C (65°F)
Dewpoint: 13.9°C (57°F) [RH = 76%]
Pressure (altimeter): 29.91 inches Hg (1013.0 mb)
[Sea-level pressure: 1012.8 mb]
Winds: from the W (280 degrees) at 3 MPH (3 knots; 1.5 m/s)
Visibility: 10 or more miles (16+ km)
Ceiling: 1500 feet AGL
Clouds: overcast cloud deck at 1500 feet AGL
Weather: automated observation with no human augmentation;
there may or may not be significant weather present at this time

METAR text: KSNA 160640Z AUTO 00000KT 10SM OVC015 18/14 A2992 RMK AO2 T01830139
Conditions at: KSNA (COSTA MESA , CA, US) observed 0640 UTC 16 June 2019
Temperature: 18.3°C (65°F)
Dewpoint: 13.9°C (57°F) [RH = 76%]
Pressure (altimeter): 29.92 inches Hg (1013.3 mb)
Winds: calm
Visibility: 10 or more miles (16+ km)
Ceiling: 1500 feet AGL
Clouds: overcast cloud deck at 1500 feet AGL
Weather: automated observation with no human augmentation;
there may or may not be significant weather present at this time

METAR text: KSNA 160609Z AUTO 26004KT 10SM OVC014 18/14 A2992 RMK AO2 T01830139
Conditions at: KSNA (COSTA MESA , CA, US) observed 0609 UTC 16 June 2019
Temperature: 18.3°C (65°F)
Dewpoint: 13.9°C (57°F) [RH = 76%]
Pressure (altimeter): 29.92 inches Hg (1013.3 mb)
Winds: from the W (260 degrees) at 5 MPH (4 knots; 2.1 m/s)
Visibility: 10 or more miles (16+ km)
Ceiling: 1400 feet AGL
Clouds: overcast cloud deck at 1400 feet AGL
Weather: automated observation with no human augmentation;
there may or may not be significant weather present at this time

METAR text: KSNA 160553Z 27005KT 9SM OVC015 19/14 A2993 RMK AO2 SLP133 LAST T01890144 10217 20189 51007
Conditions at: KSNA (COSTA MESA , CA, US) observed 0553 UTC 16 June 2019
Temperature: 18.9°C (66°F)
Dewpoint: 14.4°C (58°F) [RH = 75%]
Pressure (altimeter): 29.93 inches Hg (1013.6 mb)
[Sea-level pressure: 1013.3 mb]
Winds: from the W (270 degrees) at 6 MPH (5 knots; 2.6 m/s)
Visibility: 9 miles (14 km)
Ceiling: 1500 feet AGL
Clouds: overcast cloud deck at 1500 feet AGL
Weather: no significant weather observed at this time

METAR text: KSNA 160453Z 26005KT 10SM OVC016 19/14 A2993 RMK AO2 SLP132 T01890144
Conditions at: KSNA (COSTA MESA , CA, US) observed 0453 UTC 16 June 2019
Temperature: 18.9°C (66°F)
Dewpoint: 14.4°C (58°F) [RH = 75%]
Pressure (altimeter): 29.93 inches Hg (1013.6 mb)
[Sea-level pressure: 1013.2 mb]
Winds: from the W (260 degrees) at 6 MPH (5 knots; 2.6 m/s)
Visibility: 10 or more miles (16+ km)
Ceiling: 1600 feet AGL
Clouds: overcast cloud deck at 1600 feet AGL
Weather: no significant weather observed at this time

METAR text: KSNA 160353Z 26005KT 10SM OVC020 19/14 A2992 RMK AO2 SLP130 T01890144
Conditions at: KSNA (COSTA MESA , CA, US) observed 0353 UTC 16 June 2019
Temperature: 18.9°C (66°F)
Dewpoint: 14.4°C (58°F) [RH = 75%]
Pressure (altimeter): 29.92 inches Hg (1013.3 mb)
[Sea-level pressure: 1013.0 mb]
Winds: from the W (260 degrees) at 6 MPH (5 knots; 2.6 m/s)
Visibility: 10 or more miles (16+ km)
Ceiling: 2000 feet AGL
Clouds: overcast cloud deck at 2000 feet AGL
Weather: no significant weather observed at this time

METAR text: KSNA 160253Z 21007KT 10SM BKN017 BKN022 BKN250 19/14 A2991 RMK AO2 SLP127 T01890144 53003
Conditions at: KSNA (COSTA MESA , CA, US) observed 0253 UTC 16 June 2019
Temperature: 18.9°C (66°F)
Dewpoint: 14.4°C (58°F) [RH = 75%]
Pressure (altimeter): 29.91 inches Hg (1013.0 mb)
[Sea-level pressure: 1012.7 mb]
Winds: from the SSW (210 degrees) at 8 MPH (7 knots; 3.6 m/s)
Visibility: 10 or more miles (16+ km)
Ceiling: 1700 feet AGL
Clouds: broken clouds at 1700 feet AGL
broken clouds at 2200 feet AGL
broken clouds at 25000 feet AGL
Weather: no significant weather observed at this time

METAR text: KSNA 160238Z 22005KT 10SM SCT017 BKN023 BKN250 19/14 A2991 RMK AO2 T01940144
Conditions at: KSNA (COSTA MESA , CA, US) observed 0238 UTC 16 June 2019
Temperature: 19.4°C (67°F)
Dewpoint: 14.4°C (58°F) [RH = 73%]
Pressure (altimeter): 29.91 inches Hg (1013.0 mb)
Winds: from the SW (220 degrees) at 6 MPH (5 knots; 2.6 m/s)
Visibility: 10 or more miles (16+ km)
Ceiling: 2300 feet AGL
Clouds: scattered clouds at 1700 feet AGL
broken clouds at 2300 feet AGL
broken clouds at 25000 feet AGL
Weather: no significant weather observed at this time

METAR text: KSNA 160153Z 21009KT 10SM SCT017 SCT250 20/14 A2990 RMK AO2 SLP123 T02000144
Conditions at: KSNA (COSTA MESA , CA, US) observed 0153 UTC 16 June 2019
Temperature: 20.0°C (68°F)
Dewpoint: 14.4°C (58°F) [RH = 70%]
Pressure (altimeter): 29.90 inches Hg (1012.6 mb)
[Sea-level pressure: 1012.3 mb]
Winds: from the SSW (210 degrees) at 10 MPH (9 knots; 4.6 m/s)
Visibility: 10 or more miles (16+ km)
Ceiling: at least 12,000 feet AGL
Clouds: scattered clouds at 1700 feet AGL
scattered clouds at 25000 feet AGL
Weather: no significant weather observed at this time

METAR text: KSNA 160053Z 22008KT 10SM FEW020 SCT250 21/14 A2989 RMK AO2 SLP120 T02110144
Conditions at: KSNA (COSTA MESA , CA, US) observed 0053 UTC 16 June 2019
Temperature: 21.1°C (70°F)
Dewpoint: 14.4°C (58°F) [RH = 66%]
Pressure (altimeter): 29.89 inches Hg (1012.3 mb)
[Sea-level pressure: 1012.0 mb]
Winds: from the SW (220 degrees) at 9 MPH (8 knots; 4.1 m/s)
Visibility: 10 or more miles (16+ km)
Ceiling: at least 12,000 feet AGL
Clouds: few clouds at 2000 feet AGL
scattered clouds at 25000 feet AGL
Weather: no significant weather observed at this time

METAR text: KSNA 152353Z VRB04KT 10SM FEW001 SCT020 BKN250 22/14 A2990 RMK AO2 SLP123 FU FEW001 T02170144 10228 20189 56009
Conditions at: KSNA (COSTA MESA , CA, US) observed 2353 UTC 15 June 2019
Temperature: 21.7°C (71°F)
Dewpoint: 14.4°C (58°F) [RH = 63%]
Pressure (altimeter): 29.90 inches Hg (1012.6 mb)
[Sea-level pressure: 1012.3 mb]
Winds: variable direction winds at 5 MPH (4 knots; 2.1 m/s)
Visibility: 10 or more miles (16+ km)
Ceiling: 25000 feet AGL
Clouds: few clouds at 100 feet AGL
scattered clouds at 2000 feet AGL
broken clouds at 25000 feet AGL
Weather: no significant weather observed at this time

METAR text: KSNA 152349Z 22007KT 10SM FEW001 SCT020 BKN250 22/14 A2990 RMK AO2 FU FEW001
Conditions at: KSNA (COSTA MESA , CA, US) observed 2349 UTC 15 June 2019
Temperature: 22.0°C (72°F)
Dewpoint: 14.0°C (57°F) [RH = 60%]
Pressure (altimeter): 29.90 inches Hg (1012.6 mb)
Winds: from the SW (220 degrees) at 8 MPH (7 knots; 3.6 m/s)
Visibility: 10 or more miles (16+ km)
Ceiling: 25000 feet AGL
Clouds: few clouds at 100 feet AGL
scattered clouds at 2000 feet AGL
broken clouds at 25000 feet AGL
Weather: no significant weather observed at this time

METAR text: KSNA 152253Z 23008KT 10SM FEW023 FEW250 22/14 A2991 RMK AO2 SLP125 T02220144
Conditions at: KSNA (COSTA MESA , CA, US) observed 2253 UTC 15 June 2019
Temperature: 22.2°C (72°F)
Dewpoint: 14.4°C (58°F) [RH = 61%]
Pressure (altimeter): 29.91 inches Hg (1013.0 mb)
[Sea-level pressure: 1012.5 mb]
Winds: from the SW (230 degrees) at 9 MPH (8 knots; 4.1 m/s)
Visibility: 10 or more miles (16+ km)
Ceiling: at least 12,000 feet AGL
Clouds: few clouds at 2300 feet AGL
few clouds at 25000 feet AGL
Weather: no significant weather observed at this time

METAR text: KSNA 152153Z 22008G14KT 10SM FEW027 FEW250 22/14 A2992 RMK AO2 SLP129 T02170139
Conditions at: KSNA (COSTA MESA , CA, US) observed 2153 UTC 15 June 2019
Temperature: 21.7°C (71°F)
Dewpoint: 13.9°C (57°F) [RH = 61%]
Pressure (altimeter): 29.92 inches Hg (1013.3 mb)
[Sea-level pressure: 1012.9 mb]
Winds: from the SW (220 degrees) at 9 MPH (8 knots; 4.1 m/s)
gusting to 16 MPH (14 knots; 7.2 m/s)
Visibility: 10 or more miles (16+ km)
Ceiling: at least 12,000 feet AGL
Clouds: few clouds at 2700 feet AGL
few clouds at 25000 feet AGL
Weather: no significant weather observed at this time

METAR text: KSNA 152053Z 18008G15KT 10SM SCT026 22/14 A2993 RMK AO2 SLP133 T02220139 58011
Conditions at: KSNA (COSTA MESA , CA, US) observed 2053 UTC 15 June 2019
Temperature: 22.2°C (72°F)
Dewpoint: 13.9°C (57°F) [RH = 59%]
Pressure (altimeter): 29.93 inches Hg (1013.6 mb)
[Sea-level pressure: 1013.3 mb]
Winds: from the S (180 degrees) at 9 MPH (8 knots; 4.1 m/s)
gusting to 17 MPH (15 knots; 7.7 m/s)
Visibility: 10 or more miles (16+ km)
Ceiling: at least 12,000 feet AGL
Clouds: scattered clouds at 2600 feet AGL
Weather: no significant weather observed at this time

METAR text: KSNA 151953Z VRB05KT 10SM SCT026 22/14 A2994 RMK AO2 SLP136 T02170139
Conditions at: KSNA (COSTA MESA , CA, US) observed 1953 UTC 15 June 2019
Temperature: 21.7°C (71°F)
Dewpoint: 13.9°C (57°F) [RH = 61%]
Pressure (altimeter): 29.94 inches Hg (1014.0 mb)
[Sea-level pressure: 1013.6 mb]
Winds: variable direction winds at 6 MPH (5 knots; 2.6 m/s)
Visibility: 10 or more miles (16+ km)
Ceiling: at least 12,000 feet AGL
Clouds: scattered clouds at 2600 feet AGL
Weather: no significant weather observed at this time

METAR text: KSNA 151853Z 00000KT 10SM OVC021 20/13 A2995 RMK AO2 SLP142 T02000133
Conditions at: KSNA (COSTA MESA , CA, US) observed 1853 UTC 15 June 2019
Temperature: 20.0°C (68°F)
Dewpoint: 13.3°C (56°F) [RH = 65%]
Pressure (altimeter): 29.95 inches Hg (1014.3 mb)
[Sea-level pressure: 1014.2 mb]
Winds: calm
Visibility: 10 or more miles (16+ km)
Ceiling: 2100 feet AGL
Clouds: overcast cloud deck at 2100 feet AGL
Weather: no significant weather observed at this time

METAR text: KSNA 151753Z 00000KT 10SM OVC020 19/13 A2996 RMK AO2 SLP144 T01890128 10189 20172 51000
Conditions at: KSNA (COSTA MESA , CA, US) observed 1753 UTC 15 June 2019
Temperature: 18.9°C (66°F)
Dewpoint: 12.8°C (55°F) [RH = 68%]
Pressure (altimeter): 29.96 inches Hg (1014.6 mb)
[Sea-level pressure: 1014.4 mb]
Winds: calm
Visibility: 10 or more miles (16+ km)
Ceiling: 2000 feet AGL
Clouds: overcast cloud deck at 2000 feet AGL
Weather: no significant weather observed at this time

METAR text: KSNA 151653Z VRB03KT 10SM OVC019 18/13 A2996 RMK AO2 SLP144 T01830128
Conditions at: KSNA (COSTA MESA , CA, US) observed 1653 UTC 15 June 2019
Temperature: 18.3°C (65°F)
Dewpoint: 12.8°C (55°F) [RH = 70%]
Pressure (altimeter): 29.96 inches Hg (1014.6 mb)
[Sea-level pressure: 1014.4 mb]
Winds: variable direction winds at 3 MPH (3 knots; 1.5 m/s)
Visibility: 10 or more miles (16+ km)
Ceiling: 1900 feet AGL
Clouds: overcast cloud deck at 1900 feet AGL
Weather: no significant weather observed at this time

METAR text: KSNA 151553Z 14005KT 10SM OVC017 18/13 A2996 RMK AO2 SLP146 T01780128
Conditions at: KSNA (COSTA MESA , CA, US) observed 1553 UTC 15 June 2019
Temperature: 17.8°C (64°F)
Dewpoint: 12.8°C (55°F) [RH = 73%]
Pressure (altimeter): 29.96 inches Hg (1014.6 mb)
[Sea-level pressure: 1014.6 mb]
Winds: from the SE (140 degrees) at 6 MPH (5 knots; 2.6 m/s)
Visibility: 10 or more miles (16+ km)
Ceiling: 1700 feet AGL
Clouds: overcast cloud deck at 1700 feet AGL
Weather: no significant weather observed at this time

METAR text: KSNA 151453Z 07006KT 10SM OVC017 17/13 A2996 RMK AO2 SLP144 T01720128 53010
Conditions at: KSNA (COSTA MESA , CA, US) observed 1453 UTC 15 June 2019
Temperature: 17.2°C (63°F)
Dewpoint: 12.8°C (55°F) [RH = 75%]
Pressure (altimeter): 29.96 inches Hg (1014.6 mb)
[Sea-level pressure: 1014.4 mb]
Winds: from the ENE (70 degrees) at 7 MPH (6 knots; 3.1 m/s)
Visibility: 10 or more miles (16+ km)
Ceiling: 1700 feet AGL
Clouds: overcast cloud deck at 1700 feet AGL
Weather: no significant weather observed at this time

METAR text: KSNA 151353Z 08008KT 10SM OVC017 17/13 A2995 RMK AO2 SLP141 T01720128
Conditions at: KSNA (COSTA MESA , CA, US) observed 1353 UTC 15 June 2019
Temperature: 17.2°C (63°F)
Dewpoint: 12.8°C (55°F) [RH = 75%]
Pressure (altimeter): 29.95 inches Hg (1014.3 mb)
[Sea-level pressure: 1014.1 mb]
Winds: from the E (80 degrees) at 9 MPH (8 knots; 4.1 m/s)
Visibility: 10 or more miles (16+ km)
Ceiling: 1700 feet AGL
Clouds: overcast cloud deck at 1700 feet AGL
Weather: no significant weather observed at this time

METAR text: KSNA 151253Z 08006KT 10SM OVC017 17/12 A2993 RMK AO2 SLP135 T01720122
Conditions at: KSNA (COSTA MESA , CA, US) observed 1253 UTC 15 June 2019
Temperature: 17.2°C (63°F)
Dewpoint: 12.2°C (54°F) [RH = 72%]
Pressure (altimeter): 29.93 inches Hg (1013.6 mb)
[Sea-level pressure: 1013.5 mb]
Winds: from the E (80 degrees) at 7 MPH (6 knots; 3.1 m/s)
Visibility: 10 or more miles (16+ km)
Ceiling: 1700 feet AGL
Clouds: overcast cloud deck at 1700 feet AGL
Weather: no significant weather observed at this time

METAR text: KSNA 151153Z AUTO 17004KT 10SM OVC016 17/12 A2993 RMK AO2 SLP133 T01720122 10183 20172 55000
Conditions at: KSNA (COSTA MESA , CA, US) observed 1153 UTC 15 June 2019
Temperature: 17.2°C (63°F)
Dewpoint: 12.2°C (54°F) [RH = 72%]
Pressure (altimeter): 29.93 inches Hg (1013.6 mb)
[Sea-level pressure: 1013.3 mb]
Winds: from the S (170 degrees) at 5 MPH (4 knots; 2.1 m/s)
Visibility: 10 or more miles (16+ km)
Ceiling: 1600 feet AGL
Clouds: overcast cloud deck at 1600 feet AGL
Weather: automated observation with no human augmentation;
there may or may not be significant weather present at this time

METAR text: KSNA 151053Z AUTO 16005KT 10SM OVC017 17/12 A2992 RMK AO2 SLP131 T01720122
Conditions at: KSNA (COSTA MESA , CA, US) observed 1053 UTC 15 June 2019
Temperature: 17.2°C (63°F)
Dewpoint: 12.2°C (54°F) [RH = 72%]
Pressure (altimeter): 29.92 inches Hg (1013.3 mb)
[Sea-level pressure: 1013.1 mb]
Winds: from the SSE (160 degrees) at 6 MPH (5 knots; 2.6 m/s)
Visibility: 10 or more miles (16+ km)
Ceiling: 1700 feet AGL
Clouds: overcast cloud deck at 1700 feet AGL
Weather: automated observation with no human augmentation;
there may or may not be significant weather present at this time

METAR text: KSNA 150953Z AUTO 12008KT 10SM OVC017 17/12 A2992 RMK AO2 SLP129 T01720122
Conditions at: KSNA (COSTA MESA , CA, US) observed 0953 UTC 15 June 2019
Temperature: 17.2°C (63°F)
Dewpoint: 12.2°C (54°F) [RH = 72%]
Pressure (altimeter): 29.92 inches Hg (1013.3 mb)
[Sea-level pressure: 1012.9 mb]
Winds: from the ESE (120 degrees) at 9 MPH (8 knots; 4.1 m/s)
Visibility: 10 or more miles (16+ km)
Ceiling: 1700 feet AGL
Clouds: overcast cloud deck at 1700 feet AGL
Weather: automated observation with no human augmentation;
there may or may not be significant weather present at this time

METAR text: KSNA 150853Z AUTO 14005KT 10SM OVC019 18/12 A2993 RMK AO2 SLP133 T01780122 56003
Conditions at: KSNA (COSTA MESA , CA, US) observed 0853 UTC 15 June 2019
Temperature: 17.8°C (64°F)
Dewpoint: 12.2°C (54°F) [RH = 70%]
Pressure (altimeter): 29.93 inches Hg (1013.6 mb)
[Sea-level pressure: 1013.3 mb]
Winds: from the SE (140 degrees) at 6 MPH (5 knots; 2.6 m/s)
Visibility: 10 or more miles (16+ km)
Ceiling: 1900 feet AGL
Clouds: overcast cloud deck at 1900 feet AGL
Weather: automated observation with no human augmentation;
there may or may not be significant weather present at this time

METAR text: KSNA 150753Z AUTO 16005KT 10SM OVC019 18/12 A2993 RMK AO2 SLP135 T01780122 402170172
Conditions at: KSNA (COSTA MESA , CA, US) observed 0753 UTC 15 June 2019
Temperature: 17.8°C (64°F)
Dewpoint: 12.2°C (54°F) [RH = 70%]
Pressure (altimeter): 29.93 inches Hg (1013.6 mb)
[Sea-level pressure: 1013.5 mb]
Winds: from the SSE (160 degrees) at 6 MPH (5 knots; 2.6 m/s)
Visibility: 10 or more miles (16+ km)
Ceiling: 1900 feet AGL
Clouds: overcast cloud deck at 1900 feet AGL
Weather: automated observation with no human augmentation;
there may or may not be significant weather present at this time

METAR text: KSNA 150653Z AUTO VRB03KT 10SM OVC020 18/13 A2993 RMK AO2 SLP134 T01830128
Conditions at: KSNA (COSTA MESA , CA, US) observed 0653 UTC 15 June 2019
Temperature: 18.3°C (65°F)
Dewpoint: 12.8°C (55°F) [RH = 70%]
Pressure (altimeter): 29.93 inches Hg (1013.6 mb)
[Sea-level pressure: 1013.4 mb]
Winds: variable direction winds at 3 MPH (3 knots; 1.5 m/s)
Visibility: 10 or more miles (16+ km)
Ceiling: 2000 feet AGL
Clouds: overcast cloud deck at 2000 feet AGL
Weather: automated observation with no human augmentation;
there may or may not be significant weather present at this time

METAR text: KSNA 150553Z 00000KT 10SM OVC020 18/13 A2994 RMK AO2 SLP137 LAST T01830128 10211 20183 50004
Conditions at: KSNA (COSTA MESA , CA, US) observed 0553 UTC 15 June 2019
Temperature: 18.3°C (65°F)
Dewpoint: 12.8°C (55°F) [RH = 70%]
Pressure (altimeter): 29.94 inches Hg (1014.0 mb)
[Sea-level pressure: 1013.7 mb]
Winds: calm
Visibility: 10 or more miles (16+ km)
Ceiling: 2000 feet AGL
Clouds: overcast cloud deck at 2000 feet AGL
Weather: no significant weather observed at this time

METAR text: KSNA 150453Z 19005KT 10SM OVC020 18/13 A2994 RMK AO2 SLP138 T01830133
Conditions at: KSNA (COSTA MESA , CA, US) observed 0453 UTC 15 June 2019
Temperature: 18.3°C (65°F)
Dewpoint: 13.3°C (56°F) [RH = 73%]
Pressure (altimeter): 29.94 inches Hg (1014.0 mb)
[Sea-level pressure: 1013.8 mb]
Winds: from the S (190 degrees) at 6 MPH (5 knots; 2.6 m/s)
Visibility: 10 or more miles (16+ km)
Ceiling: 2000 feet AGL
Clouds: overcast cloud deck at 2000 feet AGL
Weather: no significant weather observed at this time

Forecast for: KSNA (COSTA MESA , CA, US)
Text: KSNA 161120Z 1612/1712 VRB04KT P6SM OVC014
Forecast period: 1200 to 2000 UTC 16 June 2019
Forecast type: FROM: standard forecast or significant change
Winds: variable direction winds at 5 MPH (4 knots; 2.1 m/s)
Visibility: 6 or more miles 10+ km)
Ceiling: 1400 feet AGL
Clouds: overcast cloud deck at 1400 feet AGL
Weather: no significant weather forecast for this period
Text: FM162000 22009KT P6SM SCT020
Forecast period: 2000 UTC 16 June 2019 to 0300 UTC 17 June 2019
Forecast type: FROM: standard forecast or significant change
Winds: from the SW (220 degrees) at 10 MPH (9 knots; 4.6 m/s)
Visibility: 6 or more miles 10+ km)
Ceiling: at least 12,000 feet AGL
Clouds: scattered clouds at 2000 feet AGL
Weather: no significant weather forecast for this period
Text: FM170300 VRB05KT P6SM OVC013
Forecast period: 0300 to 1200 UTC 17 June 2019
Forecast type: FROM: standard forecast or significant change
Winds: variable direction winds at 6 MPH (5 knots; 2.6 m/s)
Visibility: 6 or more miles 10+ km)
Ceiling: 1300 feet AGL
Clouds: overcast cloud deck at 1300 feet AGL
Weather: no significant weather forecast for this period